Time;durP1;ratioP1;P1;durP2;ratioP2;P2;SDS_P1;SDS_P2;PMS_P1;PMS_P2;Temp;Humidity;BMP_temperature;BMP_pressure;BME280_temperature;BME280_humidity;BME280_pressure;Samples;Min_cycle;Max_cycle;Signal;HPM_P1;HPM_P2
2022/08/22 00:02:22;;;;;;;;;;;;;;;;;;4938524;28;20412;-80
2022/08/22 00:04:54;;;;;;;;;;;16.80;99.90;;;;;;4935935;29;20045;-80
2022/08/22 00:07:19;;;;;;;;;;;16.60;99.90;;;;;;4929472;28;19926;-81
2022/08/22 00:10:00;;;;;;;;;;;16.50;99.90;;;;;;4932645;29;20220;-81
2022/08/22 00:12:39;;;;;;;;;;;16.40;99.90;;;;;;4932334;28;19927;-81
2022/08/22 00:15:31;;;;;;;;;;;16.40;99.90;;;;;;4937421;29;20365;-81
2022/08/22 00:18:20;;;;;;;;;;;16.30;99.90;;;;;;4932180;29;19997;-80
2022/08/22 00:20:46;;;;;;;;;;;16.30;99.90;;;;;;4932855;29;19952;-80
2022/08/22 00:23:48;;;;;;;;;;;16.20;99.90;;;;;;4918810;29;19969;-80
2022/08/22 00:26:32;;;;;;;;;;;16.30;99.90;;;;;;4860854;29;19928;-81
2022/08/22 00:29:04;;;;;;;;;;;16.70;99.90;;;;;;4923414;29;20029;-80
2022/08/22 00:31:30;;;;;;;;;;;;;;;;;;4917803;29;20424;-81
2022/08/22 00:33:56;;;;;;;;;;;;;;;;;;4930738;29;19926;-80
2022/08/22 00:36:23;;;;;;;;;;;;;;;;;;4934535;29;20017;-81
2022/08/22 00:38:52;;;;;;;;;;;16.30;99.90;;;;;;4934506;29;20509;-81
2022/08/22 00:41:30;;;;;;;;;;;16.30;99.90;;;;;;4918281;28;19958;-80
2022/08/22 00:44:05;;;;;;;;;;;16.40;99.90;;;;;;4917700;29;19927;-81
2022/08/22 00:46:48;;;;;;;;;;;16.30;99.90;;;;;;4919008;28;20178;-80
2022/08/22 00:49:35;;;;;;;;;;;16.10;99.90;;;;;;4952027;28;20013;-81
2022/08/22 00:52:21;;;;;;;;;;;16.20;99.90;;;;;;4933079;29;19927;-81
2022/08/22 00:55:09;;;;;;;;;;;16.40;99.90;;;;;;4932781;29;19926;-81
2022/08/22 00:57:34;;;;;;;;;;;16.20;99.90;;;;;;4926087;28;19927;-81
2022/08/22 01:00:05;;;;;;;;;;;16.20;99.90;;;;;;4911563;28;20319;-81
2022/08/22 01:02:50;;;;;;;;;;;16.20;99.90;;;;;;4920092;28;20030;-81
2022/08/22 01:05:27;;;;;;;;;;;16.30;99.90;;;;;;4934210;29;19926;-81
2022/08/22 01:08:14;;;;;;;;;;;16.20;99.90;;;;;;4914329;29;19926;-81
2022/08/22 01:10:41;;;;;;;;;;;;;;;;;;4933775;28;19981;-81
2022/08/22 01:13:16;;;;;;;;;;;16.30;99.90;;;;;;4937695;29;19961;-80
2022/08/22 01:15:43;;;;;;;;;;;16.20;99.90;;;;;;4919893;28;19931;-81
2022/08/22 01:18:24;;;;;;;;;;;16.00;99.90;;;;;;4917714;29;19926;-81
2022/08/22 01:21:02;;;;;;;;;;;16.50;99.90;;;;;;4919589;29;20295;-82
2022/08/22 01:23:28;;;;;;;;;;;;;;;;;;4934287;29;19941;-80
2022/08/22 01:26:13;;;;;;;;;;;16.10;99.90;;;;;;4933185;29;19965;-80
2022/08/22 01:28:54;;;;;;;;;;;16.20;99.90;;;;;;4916314;28;19934;-81
2022/08/22 01:31:39;;;;;;;;;;;16.00;99.90;;;;;;4926457;28;20001;-80
2022/08/22 01:34:08;;;;;;;;;;;16.10;99.90;;;;;;4931284;29;19926;-80
2022/08/22 01:36:40;;;;;;;;;;;16.40;99.90;;;;;;4933599;28;20341;-80
2022/08/22 01:39:25;;;;;;;;;;;15.80;99.90;;;;;;4909710;29;19934;-81
2022/08/22 01:42:06;;;;;;;;;;;16.40;99.90;;;;;;4932671;29;20524;-81
2022/08/22 01:44:32;;;;;;;;;;;;;;;;;;4937475;28;19926;-80
2022/08/22 01:46:58;;;;;;;;;;;;;;;;;;4911194;28;19977;-81
2022/08/22 01:49:27;;;;;;;;;;;;;;;;;;4934219;28;20344;-81
2022/08/22 01:51:54;;;;;;;;;;;;;;;;;;4916374;29;19935;-81
2022/08/22 01:54:20;;;;;;;;;;;;;;;;;;4922468;28;19940;-80
2022/08/22 01:56:46;;;;;;;;;;;;;;;;;;4922401;29;19937;-80
2022/08/22 01:59:13;;;;;;;;;;;;;;;;;;4921129;28;19934;-80
2022/08/22 02:01:40;;;;;;;;;;;;;;;;;;4932566;28;20338;-81
2022/08/22 02:04:06;;;;;;;;;;;;;;;;;;4933616;28;19966;-80
2022/08/22 02:09:01;;;;;;;;;;;;;;;;;;5010713;23;19926;-78
2022/08/22 02:11:27;;;;;;;;;;;;;;;;;;4959063;28;19930;-78
2022/08/22 02:13:53;;;;;;;;;;;;;;;;;;4954252;28;19926;-79
2022/08/22 02:16:19;;;;;;;;;;;;;;;;;;4974559;28;19940;-79
2022/08/22 02:18:45;;;;;;;;;;;;;;;;;;4971542;28;19930;-79
2022/08/22 02:21:11;;;;;;;;;;;;;;;;;;4974875;28;19926;-78
2022/08/22 02:23:37;;;;;;;;;;;;;;;;;;4955213;28;19930;-78
2022/08/22 02:26:04;;;;;;;;;;;;;;;;;;4971656;28;19953;-79
2022/08/22 02:28:30;;;;;;;;;;;;;;;;;;4971746;28;19929;-78
2022/08/22 02:30:59;;;;;;;;;;;;;;;;;;4958108;28;19933;-79
2022/08/22 02:33:25;;;;;;;;;;;;;;;;;;4978641;28;19941;-79
2022/08/22 02:35:51;;;;;;;;;;;;;;;;;;4959943;28;19933;-80
2022/08/22 02:38:17;;;;;;;;;;;;;;;;;;4984226;28;20017;-82
2022/08/22 02:40:47;;;;;;;;;;;;;;;;;;4969710;28;19926;-79
2022/08/22 02:43:13;;;;;;;;;;;;;;;;;;4974070;28;20002;-82
2022/08/22 02:45:39;;;;;;;;;;;;;;;;;;4977540;28;19930;-78
2022/08/22 02:48:05;;;;;;;;;;;;;;;;;;4974608;28;19933;-79
2022/08/22 02:50:37;;;;;;;;;;;15.70;99.90;;;;;;4970003;28;19930;-78
2022/08/22 02:53:23;;;;;;;;;;;15.70;99.90;;;;;;4957645;28;19976;-78
2022/08/22 02:55:58;;;;;;;;;;;15.70;99.90;;;;;;4945942;28;20028;-81
2022/08/22 02:58:36;;;;;;;;;;;15.60;99.90;;;;;;4959555;28;19926;-80
2022/08/22 03:01:02;;;;;;;;;;;15.50;99.90;;;;;;4959608;28;19984;-78
2022/08/22 03:03:30;;;;;;;;;;;15.50;99.90;;;;;;4975025;28;20020;-79
2022/08/22 03:06:15;;;;;;;;;;;15.50;99.90;;;;;;4972418;28;20065;-78
2022/08/22 03:08:59;;;;;;;;;;;15.50;99.90;;;;;;4977026;28;19933;-79
2022/08/22 03:11:27;;;;;;;;;;;15.40;99.90;;;;;;4978092;28;20577;-78
2022/08/22 03:13:59;;;;;;;;;;;15.40;99.90;;;;;;4978327;28;20021;-79
2022/08/22 03:16:28;;;;;;;;;;;15.40;99.90;;;;;;4995717;28;20013;-78
2022/08/22 03:19:07;;;;;;;;;;;15.40;99.90;;;;;;4993943;28;19922;-78
2022/08/22 03:21:56;;;;;;;;;;;15.40;99.90;;;;;;4971907;28;19933;-79
2022/08/22 03:24:25;;;;;;;;;;;15.40;99.90;;;;;;4976292;28;20502;-77
2022/08/22 03:27:09;;;;;;;;;;;15.40;99.90;;;;;;4974877;28;19926;-78
2022/08/22 03:29:42;;;;;;;;;;;15.40;99.90;;;;;;4994708;28;19929;-81
2022/08/22 03:32:20;;;;;;;;;;;15.40;99.90;;;;;;4973107;28;19992;-79
2022/08/22 03:35:04;;;;;;;;;;;15.40;99.90;;;;;;4968744;28;19936;-78
2022/08/22 03:37:39;;;;;;;;;;;15.40;99.90;;;;;;4998808;28;19929;-79
2022/08/22 03:40:05;;;;;;;;;;;15.30;99.90;;;;;;4970370;28;20419;-81
2022/08/22 03:42:30;;;;;;;;;;;15.30;99.90;;;;;;4973071;28;19926;-80
2022/08/22 03:45:02;;;;;;;;;;;15.30;99.90;;;;;;4973964;28;19940;-82
2022/08/22 03:47:50;;;;;;;;;;;15.30;99.90;;;;;;4973454;28;19969;-79
2022/08/22 03:50:28;;;;;;;;;;;15.30;99.90;;;;;;4990234;28;19934;-79
2022/08/22 03:53:20;;;;;;;;;;;15.30;99.90;;;;;;4971531;28;19926;-78
2022/08/22 03:56:06;;;;;;;;;;;15.20;99.90;;;;;;4977658;28;19976;-80
2022/08/22 03:58:35;;;;;;;;;;;15.20;99.90;;;;;;4978242;28;20042;-79
2022/08/22 04:01:17;;;;;;;;;;;15.10;99.90;;;;;;4975893;28;20527;-79
2022/08/22 04:03:52;;;;;;;;;;;15.10;99.90;;;;;;4976974;28;19972;-80
2022/08/22 04:06:42;;;;;;;;;;;15.00;99.90;;;;;;4978520;28;20024;-80
2022/08/22 04:09:30;;;;;;;;;;;14.90;99.90;;;;;;4960429;28;19949;-79
2022/08/22 04:12:02;;;;;;;;;;;14.90;99.90;;;;;;4955825;28;19933;-78
2022/08/22 04:14:42;;;;;;;;;;;14.90;99.90;;;;;;4974916;28;20022;-79
2022/08/22 04:17:28;;;;;;;;;;;14.90;99.90;;;;;;4998115;28;19969;-82
2022/08/22 04:20:05;;;;;;;;;;;14.90;99.90;;;;;;4972237;28;19925;-81
2022/08/22 04:22:51;;;;;;;;;;;14.90;99.90;;;;;;4977219;28;19932;-79
2022/08/22 04:25:24;;;;;;;;;;;14.90;99.90;;;;;;4973620;28;20254;-83
2022/08/22 04:28:09;;;;;;;;;;;14.90;99.90;;;;;;4978685;28;20360;-79
2022/08/22 04:30:45;;;;;;;;;;;14.90;99.90;;;;;;4971056;28;19929;-81
2022/08/22 04:33:38;;;;;;;;;;;14.90;99.90;;;;;;4973421;28;19948;-80
2022/08/22 04:36:26;;;;;;;;;;;14.80;99.90;;;;;;4971301;28;19933;-79
2022/08/22 04:39:07;;;;;;;;;;;14.70;99.90;;;;;;4969712;28;20027;-79
2022/08/22 04:41:35;;;;;;;;;;;14.70;99.90;;;;;;4980868;28;19984;-79
2022/08/22 04:44:04;;;;;;;;;;;14.60;99.90;;;;;;4976277;28;19959;-80
2022/08/22 04:46:33;;;;;;;;;;;14.50;99.90;;;;;;4969221;28;19933;-81
2022/08/22 04:49:21;;;;;;;;;;;14.50;99.90;;;;;;4973787;28;20333;-78
2022/08/22 04:52:07;;;;;;;;;;;14.50;99.90;;;;;;4965458;28;20450;-79
2022/08/22 04:54:41;;;;;;;;;;;14.50;99.90;;;;;;4989533;28;19922;-80
2022/08/22 04:57:11;;;;;;;;;;;14.60;99.90;;;;;;4972859;28;19936;-80
2022/08/22 05:06:05;;;;;;;;;;;14.70;99.90;;;;;;4992664;28;20061;-81
2022/08/22 05:08:40;;;;;;;;;;;14.70;99.90;;;;;;4962678;28;19925;-78
2022/08/22 05:11:07;;;;;;;;;;;14.70;99.90;;;;;;4980924;28;19926;-79
2022/08/22 05:13:42;;;;;;;;;;;14.70;99.90;;;;;;4998663;28;19928;-79
2022/08/22 05:16:12;;;;;;;;;;;14.70;99.90;;;;;;4983126;28;19936;-79
2022/08/22 05:18:42;;;;;;;;;;;14.80;99.90;;;;;;4984921;28;20380;-79
2022/08/22 05:21:10;;;;;;;;;;;14.80;99.90;;;;;;4994741;28;20029;-80
2022/08/22 05:23:38;;;;;;;;;;;14.80;99.90;;;;;;4999945;28;20020;-80
2022/08/22 05:26:05;;;;;;;;;;;14.80;99.90;;;;;;4981522;28;19926;-79
2022/08/22 05:28:32;;;;;;;;;;;14.90;99.90;;;;;;4974699;28;19937;-78
2022/08/22 05:30:58;;;;;;;;;;;14.90;99.90;;;;;;4970453;28;19930;-78
2022/08/22 05:33:41;;;;;;;;;;;15.00;99.90;;;;;;4973401;28;20300;-78
2022/08/22 05:36:07;;;;;;;;;;;15.00;99.90;;;;;;4976940;28;20308;-79
2022/08/22 05:38:35;;;;;;;;;;;15.00;99.90;;;;;;4980387;28;19926;-79
2022/08/22 05:41:06;;;;;;;;;;;15.00;99.90;;;;;;4979791;28;19926;-81
2022/08/22 05:43:35;;;;;;;;;;;15.00;99.90;;;;;;4981555;28;19925;-79
2022/08/22 05:46:04;;;;;;;;;;;15.10;99.90;;;;;;4984993;28;19929;-80
2022/08/22 05:48:39;;;;;;;;;;;15.00;99.90;;;;;;4981601;28;19961;-80
2022/08/22 05:51:12;;;;;;;;;;;15.10;99.90;;;;;;4981492;28;19926;-79
2022/08/22 05:53:39;;;;;;;;;;;15.00;99.90;;;;;;4994053;28;20297;-79
2022/08/22 05:56:19;;;;;;;;;;;15.00;99.90;;;;;;4979222;28;20053;-81
2022/08/22 05:58:48;;;;;;;;;;;15.00;99.90;;;;;;4987809;28;19930;-81
2022/08/22 06:01:33;;;;;;;;;;;15.10;99.90;;;;;;4986314;28;19965;-79
2022/08/22 06:04:05;;;;;;;;;;;15.10;99.90;;;;;;4983881;28;20016;-79
2022/08/22 06:06:33;;;;;;;;;;;15.10;99.90;;;;;;4981915;28;20032;-80
2022/08/22 06:09:16;;;;;;;;;;;15.10;99.90;;;;;;5000073;28;19940;-78
2022/08/22 06:11:55;;;;;;;;;;;15.20;99.90;;;;;;4986643;28;19964;-80
2022/08/22 06:14:27;;;;;;;;;;;15.20;99.90;;;;;;4937338;28;20017;-80
2022/08/22 06:16:58;;;;;;;;;;;15.30;99.90;;;;;;4975983;28;21036;-80
2022/08/22 06:19:24;;;;;;;;;;;15.40;99.90;;;;;;4979308;28;19944;-79
2022/08/22 06:21:52;;;;;;;;;;;15.50;99.90;;;;;;4959480;28;20300;-80
2022/08/22 06:24:21;;;;;;;;;;;15.60;99.90;;;;;;4975286;28;21182;-80
2022/08/22 06:26:50;;;;;;;;;;;15.70;99.90;;;;;;4978185;28;19929;-80
2022/08/22 06:29:26;;;;;;;;;;;15.80;99.90;;;;;;4973382;28;19925;-80
2022/08/22 06:31:52;;;;;;;;;;;15.90;99.90;;;;;;4960437;28;19937;-79
2022/08/22 06:34:22;;;;;;;;;;;16.00;99.90;;;;;;4958804;28;19964;-80
2022/08/22 06:36:49;;;;;;;;;;;16.10;99.90;;;;;;4969970;28;19933;-79
2022/08/22 06:39:21;;;;;;;;;;;16.20;99.90;;;;;;4975502;28;19984;-82
2022/08/22 06:41:50;;;;;;;;;;;16.30;99.90;;;;;;4968496;28;19957;-81
2022/08/22 06:44:19;;;;;;;;;;;16.50;99.90;;;;;;4966757;28;20392;-79
2022/08/22 06:46:46;;;;;;;;;;;16.60;99.90;;;;;;4972349;28;19984;-79
2022/08/22 06:49:12;;;;;;;;;;;16.70;99.90;;;;;;4991082;28;19955;-81
2022/08/22 06:51:38;;;;;;;;;;;16.80;99.90;;;;;;4970983;28;19925;-78
2022/08/22 06:54:06;;;;;;;;;;;16.90;99.90;;;;;;4950068;28;19941;-81
2022/08/22 06:56:39;;;;;;;;;;;16.90;99.90;;;;;;4960242;28;19933;-79
2022/08/22 06:59:08;;;;;;;;;;;17.00;99.90;;;;;;4950977;28;19933;-78
2022/08/22 07:01:42;;;;;;;;;;;17.10;99.90;;;;;;4970157;28;20383;-78
2022/08/22 07:04:09;;;;;;;;;;;17.10;99.90;;;;;;4972126;28;19945;-79
2022/08/22 07:06:36;;;;;;;;;;;17.20;99.90;;;;;;4969570;28;19968;-78
2022/08/22 07:09:04;;;;;;;;;;;17.30;99.90;;;;;;4968587;28;19979;-79
2022/08/22 07:11:31;;;;;;;;;;;17.40;99.90;;;;;;4979803;28;19938;-79
2022/08/22 07:14:08;;;;;;;;;;;17.40;99.90;;;;;;4967200;28;20522;-79
2022/08/22 07:16:42;;;;;;;;;;;17.50;99.90;;;;;;4951887;28;20004;-79
2022/08/22 07:19:09;;;;;;;;;;;17.60;99.90;;;;;;4964440;28;20035;-78
2022/08/22 07:21:42;;;;;;;;;;;17.70;99.90;;;;;;4972471;28;19933;-78
2022/08/22 07:24:09;;;;;;;;;;;17.80;99.90;;;;;;4969428;28;19930;-78
2022/08/22 07:26:38;;;;;;;;;;;17.90;99.90;;;;;;4972213;28;20072;-80
2022/08/22 07:29:04;;;;;;;;;;;18.00;99.90;;;;;;4954762;28;19979;-81
2022/08/22 07:31:33;;;;;;;;;;;18.00;99.90;;;;;;4972784;28;19930;-78
2022/08/22 07:34:17;;;;;;;;;;;18.10;99.90;;;;;;4969414;28;19934;-81
2022/08/22 07:36:46;;;;;;;;;;;18.20;99.90;;;;;;4957146;28;19926;-80
2022/08/22 07:39:19;;;;;;;;;;;18.20;99.90;;;;;;4967346;28;19933;-79
2022/08/22 07:41:58;;;;;;;;;;;18.30;99.90;;;;;;4971799;28;19930;-78
2022/08/22 07:44:28;;;;;;;;;;;18.30;99.90;;;;;;4970055;28;19934;-79
2022/08/22 07:46:59;;;;;;;;;;;18.30;99.90;;;;;;4986891;28;20033;-82
2022/08/22 07:49:31;;;;;;;;;;;18.30;99.90;;;;;;4976330;28;19941;-81
2022/08/22 07:52:03;;;;;;;;;;;18.40;99.90;;;;;;4987728;28;20471;-80
2022/08/22 07:54:35;;;;;;;;;;;18.50;99.90;;;;;;4955448;28;20531;-79
2022/08/22 07:57:06;;;;;;;;;;;18.90;99.90;;;;;;4975207;28;20009;-80
2022/08/22 07:59:35;;;;;;;;;;;18.60;99.90;;;;;;4990172;28;19965;-79
2022/08/22 08:02:01;;;;;;;;;;;;;;;;;;4994111;28;20288;-79
2022/08/22 08:04:32;;;;;;;;;;;18.70;99.90;;;;;;4961079;28;19930;-80
2022/08/22 08:07:01;;;;;;;;;;;18.80;99.90;;;;;;4993779;28;19961;-86
2022/08/22 08:09:29;;;;;;;;;;;18.90;99.90;;;;;;4963739;28;19933;-81
2022/08/22 08:11:58;;;;;;;;;;;19.00;99.90;;;;;;4974406;28;20920;-82
2022/08/22 08:14:25;;;;;;;;;;;19.10;99.90;;;;;;4976610;28;19934;-83
2022/08/22 08:17:01;;;;;;;;;;;19.30;99.90;;;;;;4977975;28;19929;-82
2022/08/22 08:19:33;;;;;;;;;;;19.40;99.90;;;;;;4953244;28;19976;-87
2022/08/22 08:21:59;;;;;;;;;;;19.60;99.90;;;;;;4973849;28;19962;-86
2022/08/22 08:24:29;;;;;;;;;;;19.70;99.90;;;;;;4974492;28;20302;-82
2022/08/22 08:29:43;;;;;;;;;;;20.00;99.90;;;;;;4970545;28;19926;-80
2022/08/22 08:32:10;;;;;;;;;;;20.00;99.90;;;;;;4988441;28;19926;-81
2022/08/22 08:34:38;;;;;;;;;;;19.90;99.90;;;;;;4959558;28;19987;-83
2022/08/22 08:37:13;;;;;;;;;;;19.90;99.90;;;;;;4988668;28;20363;-83
2022/08/22 08:39:47;;;;;;;;;;;19.80;99.90;;;;;;4984747;28;19930;-81
2022/08/22 08:42:25;;;;;;;;;;;19.80;99.90;;;;;;4971846;28;19930;-82
2022/08/22 08:45:20;;;;;;;;;;;19.70;99.90;;;;;;4967148;28;19933;-81
2022/08/22 08:47:54;;;;;;;;;;;19.70;99.90;;;;;;4978360;28;20036;-79
2022/08/22 08:50:25;;;;;;;;;;;19.70;99.90;;;;;;4977356;28;20004;-79
2022/08/22 08:52:57;;;;;;;;;;;19.70;99.90;;;;;;4975329;28;19921;-83
2022/08/22 08:55:52;;;;;;;;;;;19.80;99.90;;;;;;4972795;28;19972;-80
2022/08/22 08:58:18;;;;;;;;;;;19.80;99.90;;;;;;4925611;28;19950;-84
2022/08/22 09:00:48;;;;;;;;;;;19.80;99.90;;;;;;4960594;28;20008;-80
2022/08/22 09:03:32;;;;;;;;;;;19.90;99.90;;;;;;4970733;28;19925;-81
2022/08/22 09:06:13;;;;;;;;;;;20.00;99.90;;;;;;4960724;28;19933;-82
2022/08/22 09:08:54;;;;;;;;;;;20.00;99.90;;;;;;4972582;28;19948;-80
2022/08/22 09:11:29;;;;;;;;;;;20.10;99.90;;;;;;4972810;28;19972;-83
2022/08/22 09:13:55;;;;;;;;;;;20.20;99.90;;;;;;4956926;28;19929;-82
2022/08/22 09:16:21;;;;;;;;;;;20.40;99.90;;;;;;4958237;28;19945;-81
2022/08/22 09:19:05;;;;;;;;;;;20.60;99.90;;;;;;4961975;28;19925;-81
2022/08/22 09:21:49;;;;;;;;;;;20.70;99.90;;;;;;4973393;28;19933;-81
2022/08/22 09:24:31;;;;;;;;;;;20.80;99.90;;;;;;4965607;28;20431;-81
2022/08/22 09:27:05;;;;;;;;;;;20.90;99.90;;;;;;4966917;28;19936;-84
2022/08/22 09:29:38;;;;;;;;;;;21.10;99.90;;;;;;4977055;28;19936;-82
2022/08/22 09:32:27;;;;;;;;;;;21.20;99.90;;;;;;4955697;28;20345;-82
2022/08/22 09:34:55;;;;;;;;;;;21.40;99.90;;;;;;4979299;28;19937;-81
2022/08/22 09:37:29;;;;;;;;;;;21.60;99.90;;;;;;4952810;28;20762;-81
2022/08/22 09:40:05;;;;;;;;;;;21.70;99.90;;;;;;4959207;28;20737;-81
2022/08/22 09:42:47;;;;;;;;;;;21.80;99.90;;;;;;4976528;28;19926;-80
2022/08/22 09:45:25;;;;;;;;;;;22.00;99.90;;;;;;4959005;28;19984;-82
2022/08/22 09:48:01;;;;;;;;;;;22.10;99.90;;;;;;4972153;28;20304;-80
2022/08/22 09:50:35;;;;;;;;;;;22.20;99.90;;;;;;4960144;28;20392;-82
2022/08/22 09:53:31;;;;;;;;;;;22.40;99.90;;;;;;4954634;28;20373;-83
2022/08/22 09:56:09;;;;;;;;;;;22.80;99.90;;;;;;4948851;28;19934;-81
2022/08/22 09:58:53;;;;;;;;;;;23.10;99.90;;;;;;4973092;28;19964;-82
2022/08/22 10:01:22;;;;;;;;;;;23.50;99.90;;;;;;4973263;28;19926;-81
2022/08/22 10:03:48;;;;;;;;;;;23.80;99.90;;;;;;4959577;28;19931;-84
2022/08/22 10:06:19;;;;;;;;;;;24.00;99.90;;;;;;4951222;28;19926;-83
2022/08/22 10:08:49;;;;;;;;;;;24.00;99.90;;;;;;4965646;28;19988;-83
2022/08/22 10:11:21;;;;;;;;;;;24.10;99.90;;;;;;4966778;28;19934;-79
2022/08/22 10:13:54;;;;;;;;;;;24.30;99.90;;;;;;4961392;28;19934;-85
2022/08/22 10:16:23;;;;;;;;;;;24.50;99.90;;;;;;4966262;28;19926;-81
2022/08/22 10:19:07;;;;;;;;;;;24.50;99.90;;;;;;4974201;28;19932;-82
2022/08/22 10:21:53;;;;;;;;;;;24.50;99.90;;;;;;4975383;28;19930;-79
2022/08/22 10:24:27;;;;;;;;;;;24.70;99.90;;;;;;4952700;28;20543;-81
2022/08/22 10:26:54;;;;;;;;;;;24.90;99.90;;;;;;4957591;28;19926;-82
2022/08/22 10:29:40;;;;;;;;;;;25.00;99.90;;;;;;4969391;28;19930;-84
2022/08/22 10:32:18;;;;;;;;;;;25.00;99.90;;;;;;4970657;28;19926;-86
2022/08/22 10:34:46;;;;;;;;;;;25.00;99.90;;;;;;4969252;28;19976;-80
2022/08/22 10:37:24;;;;;;;;;;;25.20;99.90;;;;;;4953618;28;19926;-85
2022/08/22 10:40:09;;;;;;;;;;;25.20;99.90;;;;;;4974974;28;20048;-85
2022/08/22 10:42:37;;;;;;;;;;;25.40;99.90;;;;;;4975514;28;20004;-81
2022/08/22 10:45:03;;;;;;;;;;;25.50;99.90;;;;;;4977614;28;19973;-79
2022/08/22 10:47:44;;;;;;;;;;;25.60;99.90;;;;;;4973888;28;20516;-83
2022/08/22 10:50:17;;;;;;;;;;;25.80;99.90;;;;;;4947742;28;19930;-84
2022/08/22 10:55:49;;;;;;;;;;;25.80;99.90;;;;;;4971478;28;19926;-81
2022/08/22 10:58:37;;;;;;;;;;;26.10;99.90;;;;;;4940630;28;19926;-81
2022/08/22 11:01:05;;;;;;;;;;;26.20;99.90;;;;;;4965002;28;20029;-83
2022/08/22 11:03:31;;;;;;;;;;;26.20;99.90;;;;;;4969443;28;19926;-78
2022/08/22 11:05:59;;;;;;;;;;;26.10;99.90;;;;;;4952155;28;21974;-79
2022/08/22 11:08:37;;;;;;;;;;;25.90;99.90;;;;;;4967287;28;20347;-79
2022/08/22 11:11:17;;;;;;;;;;;25.60;99.90;;;;;;4966099;28;19957;-80
2022/08/22 11:14:02;;;;;;;;;;;25.70;99.90;;;;;;4947513;28;20080;-79
2022/08/22 11:16:55;;;;;;;;;;;26.00;99.90;;;;;;4957000;28;19926;-84
2022/08/22 11:19:33;;;;;;;;;;;26.10;99.90;;;;;;4980739;28;20020;-80
2022/08/22 11:21:58;;;;;;;;;;;26.50;99.90;;;;;;4949909;28;20047;-81
2022/08/22 11:24:30;;;;;;;;;;;26.50;99.90;;;;;;4978591;28;19973;-79
2022/08/22 11:27:07;;;;;;;;;;;26.60;99.90;;;;;;4993449;28;20073;-79
2022/08/22 11:29:49;;;;;;;;;;;26.80;99.90;;;;;;4976554;28;19936;-80
2022/08/22 11:32:30;;;;;;;;;;;26.80;99.90;;;;;;4955997;28;19929;-82
2022/08/22 11:35:14;;;;;;;;;;;26.80;99.90;;;;;;4965646;28;19988;-85
2022/08/22 11:37:43;;;;;;;;;;;26.60;99.90;;;;;;4977066;28;20016;-80
2022/08/22 11:40:36;;;;;;;;;;;26.10;99.90;;;;;;4977845;28;20392;-83
2022/08/22 11:43:11;;;;;;;;;;;25.60;99.90;;;;;;4943771;28;19930;-82
2022/08/22 11:45:44;;;;;;;;;;;25.70;99.90;;;;;;4960457;28;19941;-80
2022/08/22 11:48:45;;;;;;;;;;;26.00;99.90;;;;;;4983837;28;19977;-86
2022/08/22 11:51:29;;;;;;;;;;;26.00;99.90;;;;;;4878922;29;19942;-82
2022/08/22 11:54:19;;;;;;;;;;;26.10;99.90;;;;;;4979847;28;19925;-82
2022/08/22 11:56:51;;;;;;;;;;;25.90;99.90;;;;;;4988174;28;19937;-84
2022/08/22 11:59:17;;;;;;;;;;;25.70;99.90;;;;;;4997184;28;20012;-81
2022/08/22 12:01:49;;;;;;;;;;;25.50;99.90;;;;;;5004116;28;19929;-84
2022/08/22 12:04:18;;;;;;;;;;;25.40;99.90;;;;;;4982818;28;19941;-85
2022/08/22 12:06:57;;;;;;;;;;;25.60;99.90;;;;;;5002496;28;19928;-86
2022/08/22 12:09:24;;;;;;;;;;;25.50;99.90;;;;;;4984207;28;20333;-80
2022/08/22 12:11:52;;;;;;;;;;;;;;;;;;4982454;28;19930;-84
2022/08/22 12:14:26;;;;;;;;;;;25.30;99.90;;;;;;4981633;28;19936;-85
2022/08/22 12:16:55;;;;;;;;;;;25.10;99.90;;;;;;4967202;28;19936;-87
2022/08/22 12:19:24;;;;;;;;;;;25.00;99.90;;;;;;4997448;28;19929;-84
2022/08/22 12:22:00;;;;;;;;;;;24.90;99.90;;;;;;4967942;28;19930;-80
2022/08/22 12:24:35;;;;;;;;;;;24.80;99.90;;;;;;5000447;28;19933;-82
2022/08/22 12:27:04;;;;;;;;;;;24.60;99.90;;;;;;4962706;28;19979;-85
2022/08/22 12:29:40;;;;;;;;;;;24.70;99.90;;;;;;5000220;28;19929;-86
2022/08/22 12:32:27;;;;;;;;;;;24.50;99.90;;;;;;4982767;28;19934;-83
2022/08/22 12:35:11;;;;;;;;;;;24.50;99.90;;;;;;4964161;28;19925;-86
2022/08/22 12:37:53;;;;;;;;;;;24.40;99.90;;;;;;5004146;28;19939;-86
2022/08/22 12:40:25;;;;;;;;;;;24.30;99.00;;;;;;4985147;28;19934;-84
2022/08/22 12:42:56;;;;;;;;;;;24.30;99.90;;;;;;5001743;28;20028;-82
2022/08/22 12:45:41;;;;;;;;;;;24.30;99.90;;;;;;4996948;28;19961;-81
2022/08/22 12:48:26;;;;;;;;;;;24.10;99.90;;;;;;4998909;28;19930;-82
2022/08/22 12:50:54;;;;;;;;;;;24.10;99.90;;;;;;4979150;28;19929;-85
2022/08/22 12:53:32;;;;;;;;;;;24.10;99.90;;;;;;4980852;28;20447;-83
2022/08/22 12:56:01;;;;;;;;;;;24.10;99.90;;;;;;4980893;28;19972;-81
2022/08/22 12:58:30;;;;;;;;;;;24.10;99.90;;;;;;4982149;28;19937;-80
2022/08/22 13:01:01;;;;;;;;;;;24.10;99.90;;;;;;4999614;28;19929;-81
2022/08/22 13:03:32;;;;;;;;;;;24.00;99.90;;;;;;4974419;28;19934;-81
2022/08/22 13:06:02;;;;;;;;;;;24.00;99.90;;;;;;4966839;28;19934;-82
2022/08/22 13:08:34;;;;;;;;;;;24.10;99.90;;;;;;4983572;28;19964;-82
2022/08/22 13:11:05;;;;;;;;;;;24.20;99.90;;;;;;4978851;28;19945;-82
2022/08/22 13:13:43;;;;;;;;;;;24.30;99.90;;;;;;4960554;28;19952;-84
2022/08/22 13:16:11;;;;;;;;;;;24.30;99.70;;;;;;4963971;28;19934;-84
2022/08/22 13:18:46;;;;;;;;;;;24.40;99.70;;;;;;4996018;28;20415;-83
2022/08/22 13:21:14;;;;;;;;;;;24.40;99.20;;;;;;4977979;28;19960;-83
2022/08/22 13:23:42;;;;;;;;;;;24.20;99.40;;;;;;4977211;28;21208;-81
2022/08/22 13:26:34;;;;;;;;;;;24.40;99.90;;;;;;4974951;28;19969;-83
2022/08/22 13:29:17;;;;;;;;;;;24.30;99.90;;;;;;4976822;28;19968;-85
2022/08/22 13:31:49;;;;;;;;;;;24.20;99.80;;;;;;4987924;28;19933;-82
2022/08/22 13:34:37;;;;;;;;;;;24.10;99.90;;;;;;4991480;28;19973;-84
2022/08/22 13:37:05;;;;;;;;;;;24.10;99.50;;;;;;4989461;28;19929;-83
2022/08/22 13:39:32;;;;;;;;;;;24.00;99.30;;;;;;4972582;28;20492;-80
2022/08/22 13:41:59;;;;;;;;;;;24.00;99.90;;;;;;4974977;28;20344;-81
2022/08/22 13:44:27;;;;;;;;;;;24.10;99.90;;;;;;4991754;28;19931;-80
2022/08/22 13:46:54;;;;;;;;;;;24.10;99.90;;;;;;4972595;28;20432;-82
2022/08/22 13:49:30;;;;;;;;;;;24.10;99.90;;;;;;4957087;28;19930;-81
2022/08/22 13:52:10;;;;;;;;;;;24.10;99.80;;;;;;4953265;28;19945;-87
2022/08/22 13:55:02;;;;;;;;;;;24.10;99.90;;;;;;4954108;28;19930;-78
2022/08/22 13:57:32;;;;;;;;;;;24.10;99.90;;;;;;4961250;28;19959;-82
2022/08/22 14:00:30;;;;;;;;;;;24.10;99.90;;;;;;4967935;28;20303;-80
2022/08/22 14:05:51;;;;;;;;;;;23.90;99.90;;;;;;4968950;28;20200;-82
2022/08/22 14:08:20;;;;;;;;;;;23.90;99.90;;;;;;4954004;28;19940;-79
2022/08/22 14:10:52;;;;;;;;;;;23.70;99.90;;;;;;4947371;28;19951;-80
2022/08/22 14:13:37;;;;;;;;;;;23.60;99.90;;;;;;4960223;28;19925;-83
2022/08/22 14:16:08;;;;;;;;;;;23.60;99.90;;;;;;4961129;28;20012;-80
2022/08/22 14:18:40;;;;;;;;;;;23.60;99.90;;;;;;4956424;28;20323;-80
2022/08/22 14:21:26;;;;;;;;;;;23.60;99.90;;;;;;4956473;28;20224;-85
2022/08/22 14:24:18;;;;;;;;;;;23.50;99.90;;;;;;4946533;28;19934;-82
2022/08/22 14:27:00;;;;;;;;;;;23.40;99.90;;;;;;4950016;28;19926;-81
2022/08/22 14:29:32;;;;;;;;;;;23.50;99.90;;;;;;4953961;28;19952;-84
2022/08/22 14:32:01;;;;;;;;;;;23.40;99.90;;;;;;4948180;28;20329;-84
2022/08/22 14:34:28;;;;;;;;;;;23.40;99.90;;;;;;4974726;28;19935;-80
2022/08/22 14:36:58;;;;;;;;;;;23.30;99.90;;;;;;4955992;28;20232;-84
2022/08/22 14:39:33;;;;;;;;;;;23.30;99.90;;;;;;4955682;28;20108;-82
2022/08/22 14:42:07;;;;;;;;;;;23.30;99.90;;;;;;4966243;28;19977;-85
2022/08/22 14:44:42;;;;;;;;;;;23.40;99.90;;;;;;4965816;28;19941;-83
2022/08/22 14:47:10;;;;;;;;;;;23.40;99.90;;;;;;4963437;28;20188;-80
2022/08/22 14:49:56;;;;;;;;;;;23.40;99.90;;;;;;4975045;28;19967;-84
2022/08/22 14:52:27;;;;;;;;;;;23.50;99.90;;;;;;4956674;28;19938;-86
2022/08/22 14:55:17;;;;;;;;;;;23.60;99.90;;;;;;4955410;28;20016;-87
2022/08/22 14:57:49;;;;;;;;;;;23.60;99.90;;;;;;4965161;28;19941;-87
2022/08/22 15:00:24;;;;;;;;;;;23.60;99.90;;;;;;4948765;28;19934;-81
2022/08/22 15:02:49;;;;;;;;;;;23.60;99.90;;;;;;4961818;28;19930;-84
2022/08/22 15:05:18;;;;;;;;;;;23.70;99.90;;;;;;4937138;28;19945;-82
2022/08/22 15:07:50;;;;;;;;;;;23.60;99.90;;;;;;4974056;28;19930;-85
2022/08/22 15:10:16;;;;;;;;;;;23.60;99.90;;;;;;4969550;28;19929;-83
2022/08/22 15:15:50;;;;;;;;;;;23.60;99.90;;;;;;4968955;28;20292;-87
2022/08/22 15:18:32;;;;;;;;;;;23.50;99.90;;;;;;4971283;28;19930;-85
2022/08/22 15:24:22;;;;;;;;;;;23.50;99.90;;;;;;4960079;28;19961;-80
2022/08/22 15:26:50;;;;;;;;;;;23.50;99.90;;;;;;4934140;28;20593;-83
2022/08/22 15:29:37;;;;;;;;;;;23.50;99.90;;;;;;5124397;23;20425;-89
2022/08/22 15:32:03;;;;;;;;;;;23.50;99.90;;;;;;4937281;28;19937;-81
2022/08/22 15:34:39;;;;;;;;;;;23.50;99.90;;;;;;4938589;28;20210;-81